sensor_id;sensor_type;location;lat;lon;timestamp;P1;durP1;ratioP1;P2;durP2;ratioP2
36457;SDS011;22480;50.546;12.292;2023-02-28T00:00:48;9.97;;;6.60;;
36457;SDS011;22480;50.546;12.292;2023-02-28T00:03:14;10.00;;;6.23;;
36457;SDS011;22480;50.546;12.292;2023-02-28T00:05:40;10.83;;;7.47;;
36457;SDS011;22480;50.546;12.292;2023-02-28T00:08:06;11.37;;;6.33;;
36457;SDS011;22480;50.546;12.292;2023-02-28T00:10:32;10.50;;;6.37;;
36457;SDS011;22480;50.546;12.292;2023-02-28T00:13:00;9.53;;;6.27;;
36457;SDS011;22480;50.546;12.292;2023-02-28T00:15:28;8.25;;;5.47;;
36457;SDS011;22480;50.546;12.292;2023-02-28T00:17:54;9.97;;;7.37;;
36457;SDS011;22480;50.546;12.292;2023-02-28T00:20:20;10.60;;;7.47;;
36457;SDS011;22480;50.546;12.292;2023-02-28T00:22:47;11.27;;;7.53;;
36457;SDS011;22480;50.546;12.292;2023-02-28T00:25:15;10.33;;;6.67;;
36457;SDS011;22480;50.546;12.292;2023-02-28T00:27:43;12.13;;;7.83;;
36457;SDS011;22480;50.546;12.292;2023-02-28T00:30:10;12.27;;;7.30;;
36457;SDS011;22480;50.546;12.292;2023-02-28T00:32:38;11.37;;;6.87;;
36457;SDS011;22480;50.546;12.292;2023-02-28T00:35:04;11.87;;;6.37;;
36457;SDS011;22480;50.546;12.292;2023-02-28T00:37:31;8.57;;;5.93;;
36457;SDS011;22480;50.546;12.292;2023-02-28T00:39:57;10.80;;;6.37;;
36457;SDS011;22480;50.546;12.292;2023-02-28T00:42:23;10.97;;;6.50;;
36457;SDS011;22480;50.546;12.292;2023-02-28T00:44:49;8.53;;;5.53;;
36457;SDS011;22480;50.546;12.292;2023-02-28T00:47:15;9.90;;;6.73;;
36457;SDS011;22480;50.546;12.292;2023-02-28T00:49:42;9.10;;;6.40;;
36457;SDS011;22480;50.546;12.292;2023-02-28T00:52:08;9.20;;;6.37;;
36457;SDS011;22480;50.546;12.292;2023-02-28T00:54:34;9.33;;;6.20;;
36457;SDS011;22480;50.546;12.292;2023-02-28T00:57:00;11.20;;;6.80;;
36457;SDS011;22480;50.546;12.292;2023-02-28T00:59:26;12.03;;;6.07;;
36457;SDS011;22480;50.546;12.292;2023-02-28T01:01:52;10.80;;;6.33;;
36457;SDS011;22480;50.546;12.292;2023-02-28T01:04:17;9.57;;;6.07;;
36457;SDS011;22480;50.546;12.292;2023-02-28T01:06:43;8.83;;;5.57;;
36457;SDS011;22480;50.546;12.292;2023-02-28T01:09:09;10.10;;;6.53;;
36457;SDS011;22480;50.546;12.292;2023-02-28T01:11:35;10.00;;;6.23;;
36457;SDS011;22480;50.546;12.292;2023-02-28T01:14:01;10.67;;;6.80;;
36457;SDS011;22480;50.546;12.292;2023-02-28T01:16:29;11.83;;;5.57;;
36457;SDS011;22480;50.546;12.292;2023-02-28T01:18:55;10.13;;;5.73;;
36457;SDS011;22480;50.546;12.292;2023-02-28T01:21:21;8.20;;;5.53;;
36457;SDS011;22480;50.546;12.292;2023-02-28T01:23:48;8.70;;;5.40;;
36457;SDS011;22480;50.546;12.292;2023-02-28T01:26:15;8.70;;;5.50;;
36457;SDS011;22480;50.546;12.292;2023-02-28T01:28:45;8.33;;;5.10;;
36457;SDS011;22480;50.546;12.292;2023-02-28T01:31:11;7.13;;;5.10;;
36457;SDS011;22480;50.546;12.292;2023-02-28T01:33:38;8.90;;;5.23;;
36457;SDS011;22480;50.546;12.292;2023-02-28T01:36:05;10.57;;;5.20;;
36457;SDS011;22480;50.546;12.292;2023-02-28T01:38:34;8.37;;;4.93;;
36457;SDS011;22480;50.546;12.292;2023-02-28T01:41:01;9.63;;;5.47;;
36457;SDS011;22480;50.546;12.292;2023-02-28T01:45:54;10.23;;;5.80;;
36457;SDS011;22480;50.546;12.292;2023-02-28T01:48:22;9.40;;;5.37;;
36457;SDS011;22480;50.546;12.292;2023-02-28T01:50:51;9.37;;;5.43;;
36457;SDS011;22480;50.546;12.292;2023-02-28T01:53:21;8.00;;;5.33;;
36457;SDS011;22480;50.546;12.292;2023-02-28T01:55:51;7.43;;;4.40;;
36457;SDS011;22480;50.546;12.292;2023-02-28T01:58:19;11.97;;;5.93;;
36457;SDS011;22480;50.546;12.292;2023-02-28T02:00:46;9.70;;;5.87;;
36457;SDS011;22480;50.546;12.292;2023-02-28T02:03:13;8.10;;;5.60;;
36457;SDS011;22480;50.546;12.292;2023-02-28T02:05:44;9.83;;;5.03;;
36457;SDS011;22480;50.546;12.292;2023-02-28T02:08:20;9.00;;;5.47;;
36457;SDS011;22480;50.546;12.292;2023-02-28T02:10:50;9.83;;;5.20;;
36457;SDS011;22480;50.546;12.292;2023-02-28T02:18:35;9.97;;;5.17;;
36457;SDS011;22480;50.546;12.292;2023-02-28T02:31:54;10.10;;;5.27;;
36457;SDS011;22480;50.546;12.292;2023-02-28T02:34:38;8.20;;;5.57;;
36457;SDS011;22480;50.546;12.292;2023-02-28T02:45:02;12.13;;;7.77;;
36457;SDS011;22480;50.546;12.292;2023-02-28T02:48:01;12.95;;;8.73;;
36457;SDS011;22480;50.546;12.292;2023-02-28T02:50:38;15.40;;;9.17;;
36457;SDS011;22480;50.546;12.292;2023-02-28T02:53:07;13.80;;;8.57;;
36457;SDS011;22480;50.546;12.292;2023-02-28T02:55:38;15.30;;;9.33;;
36457;SDS011;22480;50.546;12.292;2023-02-28T03:00:40;14.53;;;8.40;;
36457;SDS011;22480;50.546;12.292;2023-02-28T03:03:11;13.17;;;8.10;;
36457;SDS011;22480;50.546;12.292;2023-02-28T03:05:42;15.67;;;9.87;;
36457;SDS011;22480;50.546;12.292;2023-02-28T03:08:11;14.33;;;8.33;;
36457;SDS011;22480;50.546;12.292;2023-02-28T03:18:16;13.67;;;8.73;;
36457;SDS011;22480;50.546;12.292;2023-02-28T03:21:40;11.27;;;8.20;;
36457;SDS011;22480;50.546;12.292;2023-02-28T03:26:23;14.63;;;10.17;;
36457;SDS011;22480;50.546;12.292;2023-02-28T03:31:48;15.80;;;8.93;;
36457;SDS011;22480;50.546;12.292;2023-02-28T03:34:29;13.70;;;8.13;;
36457;SDS011;22480;50.546;12.292;2023-02-28T03:37:01;14.93;;;9.37;;
36457;SDS011;22480;50.546;12.292;2023-02-28T03:39:39;14.67;;;8.30;;
36457;SDS011;22480;50.546;12.292;2023-02-28T03:42:15;20.33;;;10.57;;
36457;SDS011;22480;50.546;12.292;2023-02-28T03:44:49;14.63;;;8.97;;
36457;SDS011;22480;50.546;12.292;2023-02-28T03:49:57;16.97;;;10.03;;
36457;SDS011;22480;50.546;12.292;2023-02-28T03:52:34;14.30;;;9.57;;
36457;SDS011;22480;50.546;12.292;2023-02-28T03:55:05;14.98;;;9.85;;
36457;SDS011;22480;50.546;12.292;2023-02-28T04:00:05;13.97;;;8.70;;
36457;SDS011;22480;50.546;12.292;2023-02-28T04:02:37;13.67;;;8.87;;
36457;SDS011;22480;50.546;12.292;2023-02-28T04:05:04;16.53;;;9.90;;
36457;SDS011;22480;50.546;12.292;2023-02-28T04:07:31;13.03;;;8.93;;
36457;SDS011;22480;50.546;12.292;2023-02-28T04:09:58;15.23;;;9.27;;
36457;SDS011;22480;50.546;12.292;2023-02-28T04:12:24;14.07;;;8.73;;
36457;SDS011;22480;50.546;12.292;2023-02-28T04:14:50;15.77;;;9.50;;
36457;SDS011;22480;50.546;12.292;2023-02-28T04:17:16;16.03;;;8.87;;
36457;SDS011;22480;50.546;12.292;2023-02-28T04:19:42;16.27;;;10.07;;
36457;SDS011;22480;50.546;12.292;2023-02-28T04:22:08;14.80;;;10.20;;
36457;SDS011;22480;50.546;12.292;2023-02-28T04:24:35;16.10;;;9.53;;
36457;SDS011;22480;50.546;12.292;2023-02-28T04:27:01;19.27;;;9.70;;
36457;SDS011;22480;50.546;12.292;2023-02-28T04:29:31;14.43;;;9.43;;
36457;SDS011;22480;50.546;12.292;2023-02-28T04:31:57;15.55;;;10.50;;
36457;SDS011;22480;50.546;12.292;2023-02-28T04:34:28;15.37;;;10.20;;
36457;SDS011;22480;50.546;12.292;2023-02-28T04:36:56;16.10;;;9.40;;
36457;SDS011;22480;50.546;12.292;2023-02-28T04:39:23;13.73;;;8.80;;
36457;SDS011;22480;50.546;12.292;2023-02-28T04:41:50;19.20;;;10.83;;
36457;SDS011;22480;50.546;12.292;2023-02-28T04:44:16;17.23;;;9.53;;
36457;SDS011;22480;50.546;12.292;2023-02-28T04:46:42;17.30;;;10.53;;
36457;SDS011;22480;50.546;12.292;2023-02-28T04:49:10;18.77;;;10.27;;
36457;SDS011;22480;50.546;12.292;2023-02-28T04:51:36;16.80;;;10.47;;
36457;SDS011;22480;50.546;12.292;2023-02-28T04:54:02;20.13;;;10.80;;
36457;SDS011;22480;50.546;12.292;2023-02-28T04:56:28;21.73;;;11.40;;
36457;SDS011;22480;50.546;12.292;2023-02-28T04:58:54;18.73;;;11.20;;
36457;SDS011;22480;50.546;12.292;2023-02-28T05:01:30;19.17;;;11.07;;
36457;SDS011;22480;50.546;12.292;2023-02-28T05:03:58;20.10;;;11.57;;
36457;SDS011;22480;50.546;12.292;2023-02-28T05:06:27;20.83;;;12.10;;
36457;SDS011;22480;50.546;12.292;2023-02-28T05:08:53;20.50;;;12.03;;
36457;SDS011;22480;50.546;12.292;2023-02-28T05:11:20;21.83;;;12.67;;
36457;SDS011;22480;50.546;12.292;2023-02-28T05:13:48;19.13;;;11.60;;
36457;SDS011;22480;50.546;12.292;2023-02-28T05:16:15;20.27;;;12.13;;
36457;SDS011;22480;50.546;12.292;2023-02-28T05:18:41;19.67;;;10.77;;
36457;SDS011;22480;50.546;12.292;2023-02-28T05:23:53;16.57;;;10.93;;
36457;SDS011;22480;50.546;12.292;2023-02-28T05:26:20;17.83;;;11.17;;
36457;SDS011;22480;50.546;12.292;2023-02-28T05:28:46;18.47;;;10.07;;
36457;SDS011;22480;50.546;12.292;2023-02-28T05:31:12;17.03;;;10.57;;
36457;SDS011;22480;50.546;12.292;2023-02-28T05:33:38;14.80;;;10.17;;
36457;SDS011;22480;50.546;12.292;2023-02-28T05:36:04;15.33;;;10.70;;
36457;SDS011;22480;50.546;12.292;2023-02-28T05:38:31;14.47;;;9.53;;
36457;SDS011;22480;50.546;12.292;2023-02-28T05:40:57;15.93;;;10.10;;
36457;SDS011;22480;50.546;12.292;2023-02-28T05:43:23;16.00;;;8.80;;
36457;SDS011;22480;50.546;12.292;2023-02-28T05:45:49;16.27;;;9.90;;
36457;SDS011;22480;50.546;12.292;2023-02-28T05:48:15;14.63;;;9.17;;
36457;SDS011;22480;50.546;12.292;2023-02-28T05:50:41;13.40;;;8.50;;
36457;SDS011;22480;50.546;12.292;2023-02-28T05:53:09;14.23;;;9.10;;
36457;SDS011;22480;50.546;12.292;2023-02-28T05:55:35;14.13;;;8.73;;
36457;SDS011;22480;50.546;12.292;2023-02-28T05:58:02;13.60;;;8.67;;
36457;SDS011;22480;50.546;12.292;2023-02-28T06:00:28;13.97;;;8.27;;
36457;SDS011;22480;50.546;12.292;2023-02-28T06:02:54;13.87;;;8.67;;
36457;SDS011;22480;50.546;12.292;2023-02-28T06:05:23;14.53;;;8.97;;
36457;SDS011;22480;50.546;12.292;2023-02-28T06:07:49;16.60;;;9.70;;
36457;SDS011;22480;50.546;12.292;2023-02-28T06:10:15;13.17;;;9.23;;
36457;SDS011;22480;50.546;12.292;2023-02-28T06:12:41;13.33;;;9.30;;
36457;SDS011;22480;50.546;12.292;2023-02-28T06:15:09;15.77;;;9.20;;
36457;SDS011;22480;50.546;12.292;2023-02-28T06:17:43;15.50;;;8.73;;
36457;SDS011;22480;50.546;12.292;2023-02-28T06:20:09;14.43;;;9.40;;
36457;SDS011;22480;50.546;12.292;2023-02-28T06:22:38;14.07;;;8.57;;
36457;SDS011;22480;50.546;12.292;2023-02-28T06:25:04;14.57;;;9.50;;
36457;SDS011;22480;50.546;12.292;2023-02-28T06:27:31;18.47;;;9.47;;
36457;SDS011;22480;50.546;12.292;2023-02-28T06:29:58;15.83;;;9.37;;
36457;SDS011;22480;50.546;12.292;2023-02-28T06:32:24;13.77;;;9.07;;
36457;SDS011;22480;50.546;12.292;2023-02-28T06:34:50;15.30;;;9.53;;
36457;SDS011;22480;50.546;12.292;2023-02-28T06:37:16;14.37;;;9.40;;
36457;SDS011;22480;50.546;12.292;2023-02-28T06:39:43;17.10;;;9.47;;
36457;SDS011;22480;50.546;12.292;2023-02-28T06:42:08;16.33;;;9.63;;
36457;SDS011;22480;50.546;12.292;2023-02-28T06:44:34;16.20;;;10.17;;
36457;SDS011;22480;50.546;12.292;2023-02-28T06:47:04;15.30;;;9.97;;
36457;SDS011;22480;50.546;12.292;2023-02-28T06:49:31;17.07;;;9.70;;
36457;SDS011;22480;50.546;12.292;2023-02-28T06:51:58;16.17;;;9.53;;
36457;SDS011;22480;50.546;12.292;2023-02-28T06:54:24;17.90;;;10.13;;
36457;SDS011;22480;50.546;12.292;2023-02-28T06:56:50;17.20;;;10.23;;
36457;SDS011;22480;50.546;12.292;2023-02-28T06:59:16;13.27;;;8.27;;
36457;SDS011;22480;50.546;12.292;2023-02-28T07:01:42;11.67;;;7.67;;
36457;SDS011;22480;50.546;12.292;2023-02-28T07:04:08;12.57;;;8.33;;
36457;SDS011;22480;50.546;12.292;2023-02-28T07:06:33;14.50;;;8.70;;
36457;SDS011;22480;50.546;12.292;2023-02-28T07:08:59;13.27;;;8.07;;
36457;SDS011;22480;50.546;12.292;2023-02-28T07:11:25;13.67;;;8.97;;
36457;SDS011;22480;50.546;12.292;2023-02-28T07:13:55;15.10;;;8.67;;
36457;SDS011;22480;50.546;12.292;2023-02-28T07:16:21;13.10;;;8.67;;
36457;SDS011;22480;50.546;12.292;2023-02-28T07:18:48;13.63;;;7.93;;
36457;SDS011;22480;50.546;12.292;2023-02-28T07:21:14;11.27;;;7.50;;
36457;SDS011;22480;50.546;12.292;2023-02-28T07:23:41;11.93;;;7.63;;
36457;SDS011;22480;50.546;12.292;2023-02-28T07:26:07;10.17;;;7.40;;
36457;SDS011;22480;50.546;12.292;2023-02-28T07:28:39;14.10;;;7.97;;
36457;SDS011;22480;50.546;12.292;2023-02-28T07:31:07;10.97;;;7.40;;
36457;SDS011;22480;50.546;12.292;2023-02-28T07:33:33;10.70;;;6.70;;
36457;SDS011;22480;50.546;12.292;2023-02-28T07:36:17;14.13;;;8.47;;
36457;SDS011;22480;50.546;12.292;2023-02-28T07:38:46;13.70;;;7.83;;
36457;SDS011;22480;50.546;12.292;2023-02-28T07:41:18;14.87;;;8.03;;
36457;SDS011;22480;50.546;12.292;2023-02-28T07:43:45;13.67;;;8.50;;
36457;SDS011;22480;50.546;12.292;2023-02-28T07:46:12;12.60;;;7.87;;
36457;SDS011;22480;50.546;12.292;2023-02-28T07:48:42;13.27;;;7.73;;
36457;SDS011;22480;50.546;12.292;2023-02-28T07:51:09;11.43;;;8.10;;
36457;SDS011;22480;50.546;12.292;2023-02-28T07:53:35;12.87;;;7.93;;
36457;SDS011;22480;50.546;12.292;2023-02-28T07:56:01;10.77;;;8.00;;
36457;SDS011;22480;50.546;12.292;2023-02-28T07:58:28;13.13;;;7.80;;
36457;SDS011;22480;50.546;12.292;2023-02-28T08:00:55;12.93;;;7.67;;
36457;SDS011;22480;50.546;12.292;2023-02-28T08:03:21;13.13;;;7.83;;
36457;SDS011;22480;50.546;12.292;2023-02-28T08:05:48;13.40;;;8.53;;
36457;SDS011;22480;50.546;12.292;2023-02-28T08:08:14;14.67;;;8.37;;
36457;SDS011;22480;50.546;12.292;2023-02-28T08:10:42;11.43;;;8.47;;
36457;SDS011;22480;50.546;12.292;2023-02-28T08:13:07;13.30;;;8.23;;
36457;SDS011;22480;50.546;12.292;2023-02-28T08:15:33;13.50;;;8.20;;
36457;SDS011;22480;50.546;12.292;2023-02-28T08:17:59;15.20;;;9.43;;
36457;SDS011;22480;50.546;12.292;2023-02-28T08:20:25;35.70;;;21.17;;
36457;SDS011;22480;50.546;12.292;2023-02-28T08:22:51;14.13;;;8.90;;
36457;SDS011;22480;50.546;12.292;2023-02-28T08:25:17;9.70;;;7.00;;
36457;SDS011;22480;50.546;12.292;2023-02-28T08:27:43;11.57;;;6.80;;
36457;SDS011;22480;50.546;12.292;2023-02-28T08:30:12;11.27;;;7.00;;
36457;SDS011;22480;50.546;12.292;2023-02-28T08:32:39;11.65;;;6.90;;
36457;SDS011;22480;50.546;12.292;2023-02-28T08:35:05;11.63;;;7.00;;
36457;SDS011;22480;50.546;12.292;2023-02-28T08:37:31;9.77;;;7.13;;
36457;SDS011;22480;50.546;12.292;2023-02-28T08:39:57;9.83;;;6.27;;
36457;SDS011;22480;50.546;12.292;2023-02-28T08:42:23;10.47;;;6.20;;
36457;SDS011;22480;50.546;12.292;2023-02-28T08:44:49;8.93;;;6.13;;
36457;SDS011;22480;50.546;12.292;2023-02-28T08:47:15;10.33;;;6.77;;
36457;SDS011;22480;50.546;12.292;2023-02-28T08:49:40;10.90;;;7.00;;
36457;SDS011;22480;50.546;12.292;2023-02-28T08:52:06;9.80;;;6.40;;
36457;SDS011;22480;50.546;12.292;2023-02-28T08:54:32;8.20;;;5.43;;
36457;SDS011;22480;50.546;12.292;2023-02-28T08:56:59;9.10;;;6.23;;
36457;SDS011;22480;50.546;12.292;2023-02-28T08:59:24;14.60;;;6.53;;
36457;SDS011;22480;50.546;12.292;2023-02-28T09:01:50;10.33;;;6.17;;
36457;SDS011;22480;50.546;12.292;2023-02-28T09:04:15;11.23;;;6.43;;
36457;SDS011;22480;50.546;12.292;2023-02-28T09:06:41;9.53;;;6.43;;
36457;SDS011;22480;50.546;12.292;2023-02-28T09:09:07;9.93;;;6.30;;
36457;SDS011;22480;50.546;12.292;2023-02-28T09:11:34;8.17;;;5.23;;
36457;SDS011;22480;50.546;12.292;2023-02-28T09:14:01;8.50;;;5.43;;
36457;SDS011;22480;50.546;12.292;2023-02-28T09:16:28;9.03;;;5.27;;
36457;SDS011;22480;50.546;12.292;2023-02-28T09:18:55;11.03;;;5.70;;
36457;SDS011;22480;50.546;12.292;2023-02-28T09:21:21;8.53;;;5.07;;
36457;SDS011;22480;50.546;12.292;2023-02-28T09:23:48;9.27;;;5.80;;
36457;SDS011;22480;50.546;12.292;2023-02-28T09:28:40;7.33;;;4.93;;
36457;SDS011;22480;50.546;12.292;2023-02-28T09:31:10;9.77;;;5.07;;
36457;SDS011;22480;50.546;12.292;2023-02-28T09:33:38;7.50;;;5.10;;
36457;SDS011;22480;50.546;12.292;2023-02-28T09:36:04;7.10;;;4.70;;
36457;SDS011;22480;50.546;12.292;2023-02-28T09:38:30;5.65;;;4.60;;
36457;SDS011;22480;50.546;12.292;2023-02-28T09:40:57;8.35;;;5.40;;
36457;SDS011;22480;50.546;12.292;2023-02-28T09:43:26;6.88;;;4.65;;
36457;SDS011;22480;50.546;12.292;2023-02-28T09:46:28;6.00;;;4.80;;
36457;SDS011;22480;50.546;12.292;2023-02-28T09:48:49;7.15;;;5.70;;
36457;SDS011;22480;50.546;12.292;2023-02-28T09:54:00;8.30;;;5.65;;
36457;SDS011;22480;50.546;12.292;2023-02-28T09:56:30;7.28;;;5.35;;
36457;SDS011;22480;50.546;12.292;2023-02-28T09:59:17;7.72;;;5.47;;
36457;SDS011;22480;50.546;12.292;2023-02-28T10:02:04;8.80;;;5.10;;
36457;SDS011;22480;50.546;12.292;2023-02-28T10:04:58;7.28;;;4.90;;
36457;SDS011;22480;50.546;12.292;2023-02-28T10:12:59;7.28;;;5.25;;
36457;SDS011;22480;50.546;12.292;2023-02-28T10:15:29;7.95;;;4.78;;
36457;SDS011;22480;50.546;12.292;2023-02-28T10:17:58;6.40;;;4.90;;
36457;SDS011;22480;50.546;12.292;2023-02-28T10:20:28;7.60;;;5.50;;
36457;SDS011;22480;50.546;12.292;2023-02-28T10:23:20;8.25;;;5.53;;
36457;SDS011;22480;50.546;12.292;2023-02-28T10:25:59;7.10;;;5.57;;
36457;SDS011;22480;50.546;12.292;2023-02-28T10:28:30;6.18;;;5.00;;
36457;SDS011;22480;50.546;12.292;2023-02-28T10:30:56;6.70;;;5.53;;
36457;SDS011;22480;50.546;12.292;2023-02-28T10:33:30;6.63;;;5.30;;
36457;SDS011;22480;50.546;12.292;2023-02-28T10:35:59;8.35;;;6.05;;
36457;SDS011;22480;50.546;12.292;2023-02-28T10:38:31;7.97;;;5.60;;
36457;SDS011;22480;50.546;12.292;2023-02-28T10:41:12;5.28;;;4.50;;
36457;SDS011;22480;50.546;12.292;2023-02-28T10:43:42;7.03;;;5.32;;
36457;SDS011;22480;50.546;12.292;2023-02-28T10:48:39;8.07;;;5.47;;
36457;SDS011;22480;50.546;12.292;2023-02-28T10:51:11;7.72;;;5.80;;
36457;SDS011;22480;50.546;12.292;2023-02-28T10:53:40;6.78;;;4.82;;
36457;SDS011;22480;50.546;12.292;2023-02-28T10:56:15;6.05;;;4.68;;
36457;SDS011;22480;50.546;12.292;2023-02-28T11:03:57;6.30;;;4.90;;
36457;SDS011;22480;50.546;12.292;2023-02-28T11:06:33;5.18;;;4.32;;
36457;SDS011;22480;50.546;12.292;2023-02-28T11:09:03;6.40;;;4.68;;
36457;SDS011;22480;50.546;12.292;2023-02-28T11:11:41;7.50;;;4.25;;
36457;SDS011;22480;50.546;12.292;2023-02-28T11:14:20;5.35;;;4.47;;
36457;SDS011;22480;50.546;12.292;2023-02-28T11:16:49;5.78;;;4.18;;
36457;SDS011;22480;50.546;12.292;2023-02-28T11:19:17;7.63;;;4.00;;
36457;SDS011;22480;50.546;12.292;2023-02-28T11:21:52;6.03;;;4.45;;
36457;SDS011;22480;50.546;12.292;2023-02-28T11:24:36;6.72;;;3.97;;
36457;SDS011;22480;50.546;12.292;2023-02-28T11:27:20;9.50;;;6.95;;
36457;SDS011;22480;50.546;12.292;2023-02-28T11:29:55;7.78;;;5.80;;
36457;SDS011;22480;50.546;12.292;2023-02-28T11:32:23;7.45;;;5.75;;
36457;SDS011;22480;50.546;12.292;2023-02-28T11:35:01;6.60;;;4.35;;
36457;SDS011;22480;50.546;12.292;2023-02-28T11:37:39;6.22;;;4.30;;
36457;SDS011;22480;50.546;12.292;2023-02-28T11:40:05;6.97;;;4.30;;
36457;SDS011;22480;50.546;12.292;2023-02-28T11:45:22;6.15;;;4.40;;
36457;SDS011;22480;50.546;12.292;2023-02-28T11:48:04;7.22;;;4.70;;
36457;SDS011;22480;50.546;12.292;2023-02-28T11:59:02;6.00;;;4.57;;
36457;SDS011;22480;50.546;12.292;2023-02-28T12:04:25;6.70;;;5.07;;
36457;SDS011;22480;50.546;12.292;2023-02-28T12:07:21;6.63;;;4.65;;
36457;SDS011;22480;50.546;12.292;2023-02-28T12:16:07;5.32;;;4.50;;
36457;SDS011;22480;50.546;12.292;2023-02-28T12:18:21;6.22;;;4.78;;
36457;SDS011;22480;50.546;12.292;2023-02-28T12:21:01;6.43;;;5.10;;
36457;SDS011;22480;50.546;12.292;2023-02-28T12:26:17;6.25;;;5.07;;
36457;SDS011;22480;50.546;12.292;2023-02-28T12:28:57;7.25;;;5.25;;
36457;SDS011;22480;50.546;12.292;2023-02-28T12:31:49;7.55;;;5.50;;
36457;SDS011;22480;50.546;12.292;2023-02-28T12:34:31;5.72;;;5.10;;
36457;SDS011;22480;50.546;12.292;2023-02-28T12:37:01;7.45;;;4.63;;
36457;SDS011;22480;50.546;12.292;2023-02-28T12:39:34;8.23;;;5.07;;
36457;SDS011;22480;50.546;12.292;2023-02-28T12:42:07;8.73;;;4.93;;
36457;SDS011;22480;50.546;12.292;2023-02-28T12:47:05;6.53;;;4.97;;
36457;SDS011;22480;50.546;12.292;2023-02-28T12:49:39;6.07;;;4.95;;
36457;SDS011;22480;50.546;12.292;2023-02-28T12:52:15;8.15;;;5.13;;
36457;SDS011;22480;50.546;12.292;2023-02-28T12:54:55;6.85;;;4.97;;
36457;SDS011;22480;50.546;12.292;2023-02-28T13:00:02;8.05;;;5.45;;
36457;SDS011;22480;50.546;12.292;2023-02-28T13:10:42;7.35;;;5.25;;
36457;SDS011;22480;50.546;12.292;2023-02-28T13:13:17;6.40;;;5.45;;
36457;SDS011;22480;50.546;12.292;2023-02-28T13:21:06;7.05;;;5.40;;
36457;SDS011;22480;50.546;12.292;2023-02-28T13:34:33;7.30;;;5.40;;
36457;SDS011;22480;50.546;12.292;2023-02-28T13:39:54;8.75;;;5.90;;
36457;SDS011;22480;50.546;12.292;2023-02-28T13:47:34;7.65;;;5.63;;
36457;SDS011;22480;50.546;12.292;2023-02-28T13:55:34;8.80;;;5.60;;
36457;SDS011;22480;50.546;12.292;2023-02-28T14:04:12;6.97;;;5.90;;
36457;SDS011;22480;50.546;12.292;2023-02-28T14:06:59;7.65;;;5.82;;
36457;SDS011;22480;50.546;12.292;2023-02-28T14:09:30;7.88;;;5.13;;
36457;SDS011;22480;50.546;12.292;2023-02-28T14:18:03;10.10;;;6.40;;
36457;SDS011;22480;50.546;12.292;2023-02-28T14:20:45;9.45;;;6.15;;
36457;SDS011;22480;50.546;12.292;2023-02-28T14:23:15;8.02;;;6.18;;
36457;SDS011;22480;50.546;12.292;2023-02-28T14:29:18;8.02;;;6.10;;
36457;SDS011;22480;50.546;12.292;2023-02-28T14:31:53;8.50;;;6.13;;
36457;SDS011;22480;50.546;12.292;2023-02-28T14:37:05;17.77;;;9.93;;
36457;SDS011;22480;50.546;12.292;2023-02-28T14:39:35;9.38;;;6.35;;
36457;SDS011;22480;50.546;12.292;2023-02-28T14:42:24;7.57;;;5.85;;
36457;SDS011;22480;50.546;12.292;2023-02-28T14:44:59;9.75;;;6.72;;
36457;SDS011;22480;50.546;12.292;2023-02-28T14:47:30;8.32;;;5.93;;
36457;SDS011;22480;50.546;12.292;2023-02-28T14:49:58;9.05;;;6.47;;
36457;SDS011;22480;50.546;12.292;2023-02-28T14:52:28;10.07;;;7.07;;
36457;SDS011;22480;50.546;12.292;2023-02-28T14:55:00;9.93;;;7.20;;
36457;SDS011;22480;50.546;12.292;2023-02-28T14:57:33;9.90;;;6.90;;
36457;SDS011;22480;50.546;12.292;2023-02-28T15:02:37;9.50;;;6.82;;
36457;SDS011;22480;50.546;12.292;2023-02-28T15:07:45;12.30;;;7.15;;
36457;SDS011;22480;50.546;12.292;2023-02-28T15:10:25;10.18;;;6.60;;
36457;SDS011;22480;50.546;12.292;2023-02-28T15:12:53;9.77;;;6.15;;
36457;SDS011;22480;50.546;12.292;2023-02-28T15:15:21;8.45;;;6.65;;
36457;SDS011;22480;50.546;12.292;2023-02-28T15:17:51;9.77;;;7.00;;
36457;SDS011;22480;50.546;12.292;2023-02-28T15:20:21;9.90;;;6.53;;
36457;SDS011;22480;50.546;12.292;2023-02-28T15:22:49;11.57;;;7.13;;
36457;SDS011;22480;50.546;12.292;2023-02-28T15:25:21;11.15;;;7.35;;
36457;SDS011;22480;50.546;12.292;2023-02-28T15:27:52;8.70;;;6.68;;
36457;SDS011;22480;50.546;12.292;2023-02-28T15:30:31;10.63;;;6.88;;
36457;SDS011;22480;50.546;12.292;2023-02-28T15:35:31;10.63;;;7.50;;
36457;SDS011;22480;50.546;12.292;2023-02-28T15:38:02;11.55;;;7.97;;
36457;SDS011;22480;50.546;12.292;2023-02-28T15:40:50;11.30;;;8.05;;
36457;SDS011;22480;50.546;12.292;2023-02-28T15:43:29;10.27;;;7.57;;
36457;SDS011;22480;50.546;12.292;2023-02-28T15:48:32;12.02;;;7.22;;
36457;SDS011;22480;50.546;12.292;2023-02-28T15:51:07;9.32;;;7.22;;
36457;SDS011;22480;50.546;12.292;2023-02-28T15:56:23;13.15;;;8.10;;
36457;SDS011;22480;50.546;12.292;2023-02-28T15:59:14;12.10;;;7.95;;
36457;SDS011;22480;50.546;12.292;2023-02-28T16:01:46;11.60;;;7.15;;
36457;SDS011;22480;50.546;12.292;2023-02-28T16:04:13;10.48;;;7.80;;
36457;SDS011;22480;50.546;12.292;2023-02-28T16:06:41;8.87;;;6.80;;
36457;SDS011;22480;50.546;12.292;2023-02-28T16:09:12;10.48;;;7.95;;
36457;SDS011;22480;50.546;12.292;2023-02-28T16:11:48;10.18;;;7.13;;
36457;SDS011;22480;50.546;12.292;2023-02-28T16:14:17;10.80;;;7.68;;
36457;SDS011;22480;50.546;12.292;2023-02-28T16:16:46;11.02;;;7.65;;
36457;SDS011;22480;50.546;12.292;2023-02-28T16:19:14;16.08;;;9.10;;
36457;SDS011;22480;50.546;12.292;2023-02-28T16:21:40;12.00;;;9.07;;
36457;SDS011;22480;50.546;12.292;2023-02-28T16:24:06;11.48;;;8.10;;
36457;SDS011;22480;50.546;12.292;2023-02-28T16:26:32;13.60;;;9.43;;
36457;SDS011;22480;50.546;12.292;2023-02-28T16:28:59;12.48;;;8.88;;
36457;SDS011;22480;50.546;12.292;2023-02-28T16:31:27;13.38;;;8.63;;
36457;SDS011;22480;50.546;12.292;2023-02-28T16:33:53;13.33;;;9.20;;
36457;SDS011;22480;50.546;12.292;2023-02-28T16:36:22;14.73;;;9.87;;
36457;SDS011;22480;50.546;12.292;2023-02-28T16:38:50;13.23;;;8.83;;
36457;SDS011;22480;50.546;12.292;2023-02-28T16:41:17;14.30;;;9.70;;
36457;SDS011;22480;50.546;12.292;2023-02-28T16:43:46;13.10;;;9.40;;
36457;SDS011;22480;50.546;12.292;2023-02-28T16:46:13;15.67;;;9.40;;
36457;SDS011;22480;50.546;12.292;2023-02-28T16:48:39;12.70;;;8.63;;
36457;SDS011;22480;50.546;12.292;2023-02-28T16:51:11;13.57;;;8.53;;
36457;SDS011;22480;50.546;12.292;2023-02-28T16:53:37;15.55;;;9.82;;
36457;SDS011;22480;50.546;12.292;2023-02-28T16:56:03;13.80;;;10.27;;
36457;SDS011;22480;50.546;12.292;2023-02-28T16:58:32;16.17;;;9.80;;
36457;SDS011;22480;50.546;12.292;2023-02-28T17:01:01;15.97;;;9.30;;
36457;SDS011;22480;50.546;12.292;2023-02-28T17:03:29;14.00;;;9.47;;
36457;SDS011;22480;50.546;12.292;2023-02-28T17:05:55;13.53;;;10.33;;
36457;SDS011;22480;50.546;12.292;2023-02-28T17:08:21;14.03;;;9.73;;
36457;SDS011;22480;50.546;12.292;2023-02-28T17:10:46;16.53;;;10.33;;
36457;SDS011;22480;50.546;12.292;2023-02-28T17:13:12;16.50;;;9.23;;
36457;SDS011;22480;50.546;12.292;2023-02-28T17:15:38;17.63;;;10.23;;
36457;SDS011;22480;50.546;12.292;2023-02-28T17:18:05;15.57;;;10.37;;
36457;SDS011;22480;50.546;12.292;2023-02-28T17:20:33;15.70;;;10.67;;
36457;SDS011;22480;50.546;12.292;2023-02-28T17:22:59;17.63;;;10.50;;
36457;SDS011;22480;50.546;12.292;2023-02-28T17:25:25;15.83;;;10.33;;